ADDS METAR Data INFO
IDs: Format: Raw Decoded Include TAF

Data at: 1845 UTC 17 Oct 2017

PAMR 171753Z 03004KT 10SM CLR M03/M03 A2943 RMK SLP966 T10331033 11033 21061 58014 VIA AUTODIAL
PAMR 171653Z 00000KT 10SM CLR M06/M07 A2944 RMK SLP973 T10561067 VIA AUTODIAL
PAMR 171553Z 00000KT 10SM CLR M05/M07 A2946 RMK SLP977 T10501067 VIA AUTODIAL
PAMR 171453Z 00000KT 10SM CLR M04/M07 A2947 RMK SLP981 T10441067 56017 VIA AUTODIAL
PAMR 171353Z 00000KT 10SM CLR M04/M07 A2948 RMK SLP983 T10441067 VIA AUTODIAL
PAMR 171253Z 00000KT 10SM CLR M06/M07 A2949 RMK SLP988 T10611067 VIA AUTODIAL
PAMR 171153Z 00000KT 10SM FEW095 M04/M06 A2952 RMK SLP998 T10441061 11017 21056 58011 VIA AUTODIAL
PAMR 171053Z 00000KT 10SM FEW080 M05/M06 A2953 RMK SLP002 T10501061 VIA AUTODIAL
PAMR 170953Z 00000KT 10SM FEW080 M04/M06 A2955 RMK SLP008 T10441061 VIA AUTODIAL
PAMR 170853Z 00000KT 10SM FEW060 M03/M06 A2955 RMK SLP009 T10331061 400391061 57003 VIA AUTODIAL
PAMR 170753Z 06003KT 10SM FEW060 M03/M06 A2955 RMK SLP009 T10281056 VIA AUTODIAL
PAMR 170653Z 00000KT 10SM FEW060 M02/M05 A2956 RMK SLP012 T10221050 VIA AUTODIAL
PAMR 170553Z AUTO 10003KT 10SM CLR M02/M06 A2956 RMK SLP013 T10221056 10039 21028 58001 TSNO VIA AUTODIAL
PAMR 170453Z 11003KT 10SM CLR M02/M05 A2957 RMK SLP015 T10221050 VIA AUTODIAL
PAMR 170353Z 12003KT 10SM CLR M01/M04 A2956 RMK SLP013 T10061039 VIA AUTODIAL
PAMR 170253Z 00000KT 10SM CLR 02/M04 A2956 RMK SLP013 T00171044 58001 VIA AUTODIAL
PAMR 170153Z 00000KT 10SM CLR 03/M05 A2956 RMK SLP013 T00281050 VIA AUTODIAL
PAMR 170053Z 00000KT 10SM CLR 03/M05 A2957 RMK SLP014 T00331050 VIA AUTODIAL
PAMR 162353Z VRB04KT 10SM CLR 04/M05 A2957 RMK SLP014 T00391050 10039 21044 58003 VIA AUTODIAL
PAMR 162253Z 35004KT 10SM CLR 03/M05 A2957 RMK SLP016 T00281050 VIA AUTODIAL
PAMR 162153Z 31003KT 10SM CLR 02/M04 A2957 RMK SLP016 T00221044 VIA AUTODIAL
PAMR 162053Z 00000KT 10SM CLR 02/M02 A2957 RMK SLP016 T00171022 51010 VIA AUTODIAL
PAMR 161953Z 00000KT 10SM CLR 00/M01 A2957 RMK SLP014 T00001011 VIA AUTODIAL
PAMR 161853Z 00000KT 10SM CLR M02/M03 A2956 RMK SLP011 T10221028 VIA AUTODIAL
PAMR 161753Z 00000KT 10SM CLR M04/M04 A2954 RMK SLP006 I6000 T10441044 11033 21061 53004 VIA AUTODIAL
PAMR 161653Z 00000KT 10SM CLR M05/M06 A2954 RMK SLP005 I1000 T10501056 VIA AUTODIAL
PAMR 161553Z 00000KT 10SM CLR M05/M06 A2954 RMK SLP003 I1000 T10501056 VIA AUTODIAL
PAMR 161453Z 00000KT 10SM CLR M04/M05 A2953 RMK SLP002 I1000 I3000 T10441050 53005 VIA AUTODIAL
PAMR 161353Z 00000KT 10SM CLR M04/M04 A2952 RMK SLP999 I1000 T10441044 VIA AUTODIAL
PAMR 161253Z 00000KT 10SM CLR M04/M04 A2952 RMK SLP998 I1000 T10391044 VIA AUTODIAL
PAMR 161153Z 00000KT 10SM CLR M03/M04 A2952 RMK SLP997 I1000 I6000 T10331039 10000 21044 51005 VIA AUTODIAL
PAMR 161053Z 00000KT 10SM CLR M04/M04 A2952 RMK SLP997 T10391039 VIA AUTODIAL
PAMR 160953Z 00000KT 10SM CLR M02/M03 A2951 RMK SLP996 T10221028 VIA AUTODIAL
PAMR 160853Z 00000KT 10SM CLR M01/M01 A2950 RMK SLP992 T10111011 400331039 51008 VIA AUTODIAL
PAMR 160753Z 00000KT 10SM OVC090 M01/M02 A2950 RMK SLP990 T10111022 VIA AUTODIAL
PAMR 160653Z 00000KT 10SM FEW070 BKN200 M01/M02 A2949 RMK SLP987 T10111022 VIA AUTODIAL